Time;durP1;ratioP1;P1;durP2;ratioP2;P2;SDS_P1;SDS_P2;PMS_P1;PMS_P2;Temp;Humidity;BMP_temperature;BMP_pressure;BME280_temperature;BME280_humidity;BME280_pressure;Samples;Min_cycle;Max_cycle;Signal;HPM_P1;HPM_P2
2023/07/19 00:01:54;;;;;;;0.40;0.00;;;16.30;99.90;;;;;;5073659;28;20020;-74
2023/07/19 00:04:22;;;;;;;2.47;0.20;;;16.30;99.90;;;;;;5073765;28;20028;-74
2023/07/19 00:06:48;;;;;;;0.93;0.35;;;16.20;99.90;;;;;;5073603;28;20075;-74
2023/07/19 00:09:13;;;;;;;2.70;0.10;;;16.10;99.90;;;;;;5073357;28;20020;-75
2023/07/19 00:11:39;;;;;;;0.73;0.25;;;16.10;99.90;;;;;;5073511;28;20035;-73
2023/07/19 00:14:05;;;;;;;0.32;0.00;;;16.10;99.90;;;;;;5073649;28;20502;-74
2023/07/19 00:16:32;;;;;;;2.28;0.20;;;16.00;99.90;;;;;;5073502;28;20023;-74
2023/07/19 00:18:57;;;;;;;2.17;0.28;;;16.00;99.90;;;;;;5073389;28;20036;-74
2023/07/19 00:21:23;;;;;;;1.08;0.00;;;15.90;99.90;;;;;;5073390;28;20021;-74
2023/07/19 00:23:48;;;;;;;2.15;0.20;;;15.90;99.90;;;;;;5073266;28;20107;-74
2023/07/19 00:26:14;;;;;;;1.42;0.00;;;15.90;99.90;;;;;;5073202;28;20403;-74
2023/07/19 00:28:40;;;;;;;0.32;0.00;;;15.80;99.90;;;;;;5073278;28;20036;-74
2023/07/19 00:31:05;;;;;;;0.47;0.15;;;15.80;99.90;;;;;;5055070;28;20025;-74
2023/07/19 00:33:31;;;;;;;0.65;0.00;;;15.70;99.90;;;;;;5073156;28;20476;-74
2023/07/19 00:35:56;;;;;;;2.50;0.32;;;15.70;99.90;;;;;;5073284;28;20017;-74
2023/07/19 00:38:22;;;;;;;2.40;0.10;;;15.60;99.90;;;;;;5055148;28;20498;-74
2023/07/19 00:40:49;;;;;;;4.05;0.52;;;15.60;99.90;;;;;;5073231;28;20028;-74
2023/07/19 00:43:14;;;;;;;0.47;0.00;;;15.60;99.90;;;;;;5055101;28;20013;-74
2023/07/19 00:45:53;;;;;;;2.20;0.10;;;15.50;99.90;;;;;;5055137;28;20036;-74
2023/07/19 00:48:18;;;;;;;0.65;0.00;;;15.50;99.90;;;;;;5055207;28;20021;-74
2023/07/19 00:50:45;;;;;;;0.30;0.00;;;15.60;99.90;;;;;;5073039;28;20093;-74
2023/07/19 00:53:14;;;;;;;2.88;0.52;;;15.50;99.90;;;;;;5054937;28;20013;-74
2023/07/19 00:55:40;;;;;;;2.30;0.10;;;15.50;99.90;;;;;;5072960;28;20036;-74
2023/07/19 00:58:06;;;;;;;2.67;0.20;;;15.50;99.90;;;;;;5055086;28;20024;-73
2023/07/19 01:00:32;;;;;;;3.10;0.15;;;15.50;99.90;;;;;;5073034;28;20070;-73
2023/07/19 01:02:59;;;;;;;2.05;0.20;;;15.60;99.90;;;;;;5054927;28;20488;-74
2023/07/19 01:05:26;;;;;;;2.53;0.10;;;15.50;99.90;;;;;;5072901;28;20105;-74
2023/07/19 01:07:53;;;;;;;0.20;0.03;;;15.60;99.90;;;;;;5072885;28;20027;-74
2023/07/19 01:10:19;;;;;;;2.08;0.10;;;15.60;99.90;;;;;;5054881;28;20090;-75
2023/07/19 01:13:08;;;;;;;2.72;0.10;;;15.60;99.90;;;;;;5073075;28;20029;-75
2023/07/19 01:15:34;;;;;;;0.65;0.10;;;15.50;99.90;;;;;;5072775;28;20499;-74
2023/07/19 01:18:00;;;;;;;5.18;0.43;;;15.50;99.90;;;;;;5054856;28;20016;-74
2023/07/19 01:20:26;;;;;;;1.38;0.17;;;15.50;99.90;;;;;;5072810;28;20020;-75
2023/07/19 01:22:52;;;;;;;1.45;0.00;;;15.50;99.90;;;;;;5072707;28;20415;-74
2023/07/19 01:25:17;;;;;;;0.70;0.00;;;15.50;99.90;;;;;;5072628;28;20451;-74
2023/07/19 01:27:43;;;;;;;4.28;0.00;;;15.50;99.90;;;;;;5054746;28;20025;-75
2023/07/19 01:30:09;;;;;;;0.93;0.00;;;15.40;99.90;;;;;;5072616;28;20496;-74
2023/07/19 01:32:34;;;;;;;0.28;0.10;;;15.40;99.90;;;;;;5054710;28;20039;-74
2023/07/19 01:35:00;;;;;;;0.73;0.00;;;15.40;99.90;;;;;;5054575;28;20046;-74
2023/07/19 01:37:30;;;;;;;3.40;0.10;;;15.40;99.90;;;;;;5072521;28;20056;-74
2023/07/19 01:39:55;;;;;;;0.95;0.20;;;15.40;99.90;;;;;;5072634;28;20395;-74
2023/07/19 01:42:22;;;;;;;2.17;0.05;;;15.40;99.90;;;;;;5073146;28;20028;-73
2023/07/19 01:44:48;;;;;;;1.05;0.15;;;15.40;99.90;;;;;;5058128;28;20031;-74
2023/07/19 01:47:14;;;;;;;3.55;0.60;;;15.30;99.90;;;;;;5076220;28;20384;-74
2023/07/19 01:49:40;;;;;;;3.92;0.75;;;15.30;99.90;;;;;;5057997;28;20105;-74
2023/07/19 01:52:06;;;;;;;2.63;0.15;;;15.30;99.90;;;;;;5076617;28;20048;-74
2023/07/19 01:54:31;;;;;;;0.52;0.05;;;15.30;99.90;;;;;;5058226;28;20404;-74
2023/07/19 01:56:58;;;;;;;0.55;0.00;;;15.40;99.90;;;;;;5058134;28;20016;-74
2023/07/19 01:59:23;;;;;;;4.03;0.10;;;15.30;99.90;;;;;;5058021;28;20020;-74
2023/07/19 02:01:49;;;;;;;0.82;0.20;;;15.30;99.90;;;;;;5075830;28;20086;-74
2023/07/19 02:04:14;;;;;;;1.00;0.30;;;15.30;99.90;;;;;;5075819;28;20028;-74
2023/07/19 02:06:40;;;;;;;0.95;0.00;;;15.20;99.90;;;;;;5075757;28;20027;-74
2023/07/19 02:09:06;;;;;;;0.85;0.10;;;15.20;99.90;;;;;;5057802;28;20024;-74
2023/07/19 02:11:31;;;;;;;0.30;0.00;;;15.10;99.90;;;;;;5057873;28;20441;-74
2023/07/19 02:13:57;;;;;;;2.65;0.40;;;15.10;99.90;;;;;;5075544;28;20480;-74
2023/07/19 02:16:25;;;;;;;1.05;0.10;;;15.10;99.90;;;;;;5075719;28;20024;-74
2023/07/19 02:18:51;;;;;;;2.08;0.28;;;15.10;99.90;;;;;;5076143;28;20116;-74
2023/07/19 02:21:16;;;;;;;1.15;0.10;;;15.00;99.90;;;;;;5057643;28;20063;-74
2023/07/19 02:23:43;;;;;;;0.93;0.10;;;15.10;99.90;;;;;;5075624;28;20035;-74
2023/07/19 02:26:08;;;;;;;1.75;0.20;;;15.00;99.90;;;;;;5057457;28;20037;-74
2023/07/19 02:28:34;;;;;;;3.63;0.25;;;15.00;99.90;;;;;;5075445;28;20031;-74
2023/07/19 02:30:59;;;;;;;0.98;0.17;;;15.00;99.90;;;;;;5075401;28;20059;-74
2023/07/19 02:33:25;;;;;;;3.88;0.05;;;15.00;99.90;;;;;;5075300;28;20024;-74
2023/07/19 02:35:54;;;;;;;0.68;0.00;;;15.00;99.90;;;;;;5075297;28;20072;-74
2023/07/19 02:38:21;;;;;;;2.90;0.20;;;15.10;99.90;;;;;;5075826;28;20391;-74
2023/07/19 02:40:47;;;;;;;4.07;0.88;;;15.10;99.90;;;;;;5075223;28;20480;-74
2023/07/19 02:43:13;;;;;;;5.47;0.40;;;15.00;99.90;;;;;;5057111;28;20031;-74
2023/07/19 02:45:39;;;;;;;4.28;0.40;;;15.10;99.90;;;;;;5075224;28;20115;-75
2023/07/19 02:48:05;;;;;;;1.05;0.45;;;15.10;99.90;;;;;;5075114;28;20028;-75
2023/07/19 02:50:30;;;;;;;1.45;0.20;;;15.00;99.90;;;;;;5074924;28;20055;-74
2023/07/19 02:52:59;;;;;;;0.43;0.10;;;15.00;99.90;;;;;;5074887;28;20020;-74
2023/07/19 02:55:25;;;;;;;1.58;0.17;;;17.30;99.90;;;;;;5074921;28;20024;-74
2023/07/19 02:57:50;;;;;;;2.15;0.20;;;15.10;99.90;;;;;;5075367;28;20090;-74
2023/07/19 03:00:16;;;;;;;1.67;0.10;;;15.10;99.90;;;;;;5075454;28;20029;-74
2023/07/19 03:02:42;;;;;;;2.17;0.20;;;15.10;99.90;;;;;;5074893;28;20410;-74
2023/07/19 03:05:07;;;;;;;1.23;0.20;;;15.10;99.90;;;;;;5074686;28;20043;-74
2023/07/19 03:07:33;;;;;;;0.55;0.13;;;15.10;99.90;;;;;;5075322;28;20354;-74
2023/07/19 03:09:59;;;;;;;3.20;0.10;;;15.20;99.90;;;;;;5056628;28;20119;-74
2023/07/19 03:12:25;;;;;;;0.75;0.30;;;15.20;99.90;;;;;;5074928;28;20046;-74
2023/07/19 03:14:51;;;;;;;1.27;0.30;;;15.20;99.90;;;;;;5074429;28;20021;-74
2023/07/19 03:17:16;;;;;;;2.42;0.20;;;17.70;99.90;;;;;;5074930;28;20078;-74
2023/07/19 03:19:45;;;;;;;0.45;0.20;;;15.20;99.90;;;;;;5074437;28;20468;-74
2023/07/19 03:22:11;;;;;;;4.88;0.15;;;15.20;99.90;;;;;;5074392;28;20111;-74
2023/07/19 03:24:37;;;;;;;1.25;0.20;;;15.20;99.90;;;;;;5074181;28;20100;-74
2023/07/19 03:27:02;;;;;;;1.52;0.35;;;15.20;99.90;;;;;;5074862;28;20020;-74
2023/07/19 03:29:31;;;;;;;0.93;0.25;;;15.20;99.90;;;;;;5074658;28;20043;-74
2023/07/19 03:31:56;;;;;;;0.90;0.30;;;15.20;99.90;;;;;;5074148;28;20020;-74
2023/07/19 03:34:22;;;;;;;4.90;0.55;;;15.20;99.90;;;;;;5056122;28;20054;-74
2023/07/19 03:36:47;;;;;;;2.75;0.40;;;15.20;99.90;;;;;;5074073;28;20025;-74
2023/07/19 03:39:13;;;;;;;2.53;0.10;;;15.20;99.90;;;;;;5074025;28;20137;-74
2023/07/19 03:41:39;;;;;;;2.10;0.10;;;15.20;99.90;;;;;;5056144;28;20488;-74
2023/07/19 03:44:04;;;;;;;0.60;0.10;;;15.20;99.90;;;;;;5074014;28;20030;-74
2023/07/19 03:46:30;;;;;;;1.05;0.20;;;15.20;99.90;;;;;;5073850;28;20070;-75
2023/07/19 03:48:55;;;;;;;2.15;0.10;;;15.20;99.90;;;;;;5055945;28;20028;-74
2023/07/19 03:51:21;;;;;;;1.75;0.20;;;15.30;99.90;;;;;;5055970;28;20104;-74
2023/07/19 03:53:46;;;;;;;4.50;0.20;;;15.30;99.90;;;;;;5074039;28;20059;-74
2023/07/19 03:56:13;;;;;;;1.00;0.40;;;15.30;99.90;;;;;;5073961;28;20131;-74
2023/07/19 03:58:40;;;;;;;1.00;0.10;;;15.20;99.90;;;;;;5073701;28;20111;-74
2023/07/19 04:01:06;;;;;;;1.25;0.00;;;15.30;99.90;;;;;;5073968;28;20096;-74
2023/07/19 04:03:33;;;;;;;1.80;0.10;;;15.30;99.90;;;;;;5073631;28;20052;-74
2023/07/19 04:05:58;;;;;;;1.95;0.10;;;15.30;99.90;;;;;;5055326;28;20021;-74
2023/07/19 04:08:25;;;;;;;0.50;0.00;;;15.30;99.90;;;;;;5055656;28;20024;-74
2023/07/19 04:10:51;;;;;;;1.20;0.15;;;15.30;99.90;;;;;;5073466;28;20051;-74
2023/07/19 04:13:16;;;;;;;3.13;0.30;;;15.30;99.90;;;;;;5055518;28;20029;-74
2023/07/19 04:15:42;;;;;;;4.25;0.40;;;15.40;99.90;;;;;;5055597;28;20021;-74
2023/07/19 04:18:07;;;;;;;1.48;0.00;;;15.30;99.90;;;;;;5073368;28;20048;-74
2023/07/19 04:20:36;;;;;;;2.10;0.20;;;15.40;99.90;;;;;;5055429;28;20031;-74
2023/07/19 04:23:03;;;;;;;0.45;0.00;;;15.40;99.90;;;;;;5073359;28;20027;-74
2023/07/19 04:25:28;;;;;;;0.17;0.00;;;15.40;99.90;;;;;;5073186;28;20032;-74
2023/07/19 04:27:54;;;;;;;6.05;0.65;;;15.40;99.90;;;;;;5073264;28;20073;-74
2023/07/19 04:30:19;;;;;;;1.55;0.10;;;15.40;99.90;;;;;;5073698;28;20032;-74
2023/07/19 04:32:45;;;;;;;1.42;0.17;;;15.50;99.90;;;;;;5055128;28;20027;-74
2023/07/19 04:35:11;;;;;;;0.63;0.20;;;15.50;99.90;;;;;;5055078;28;20369;-74
2023/07/19 04:37:40;;;;;;;0.40;0.05;;;15.60;99.90;;;;;;5055216;28;20052;-74
2023/07/19 04:40:08;;;;;;;3.20;0.25;;;15.60;99.90;;;;;;5073203;28;20078;-73
2023/07/19 04:42:34;;;;;;;1.45;0.30;;;15.60;99.90;;;;;;5038721;28;20037;-73
2023/07/19 04:44:59;;;;;;;3.35;0.20;;;15.60;99.90;;;;;;5072946;28;20411;-73
2023/07/19 04:47:25;;;;;;;1.52;0.13;;;15.60;99.90;;;;;;5073618;28;20029;-73
2023/07/19 04:49:51;;;;;;;0.75;0.10;;;15.70;99.90;;;;;;5073468;28;20032;-74
2023/07/19 04:52:16;;;;;;;2.55;0.65;;;15.80;99.90;;;;;;5073180;28;20028;-75
2023/07/19 04:54:42;;;;;;;1.45;0.20;;;15.80;99.90;;;;;;5073043;28;20020;-78
2023/07/19 04:57:07;;;;;;;0.45;0.17;;;15.90;99.90;;;;;;5074257;28;20044;-78
2023/07/19 04:59:33;;;;;;;2.30;0.47;;;16.00;99.90;;;;;;5074564;28;20060;-78
2023/07/19 05:01:59;;;;;;;2.85;0.28;;;16.00;99.90;;;;;;5073641;28;20074;-77
2023/07/19 05:04:25;;;;;;;1.70;0.20;;;16.20;99.90;;;;;;5055003;28;20115;-77
2023/07/19 05:06:51;;;;;;;0.60;0.10;;;16.30;99.90;;;;;;5072965;28;20048;-77
2023/07/19 05:09:17;;;;;;;2.92;0.25;;;16.30;99.90;;;;;;5072978;28;20117;-77
2023/07/19 05:11:43;;;;;;;0.55;0.20;;;16.50;99.90;;;;;;5054894;28;20028;-77
2023/07/19 05:14:09;;;;;;;0.93;0.68;;;16.50;99.90;;;;;;5072863;28;20499;-77
2023/07/19 05:16:35;;;;;;;2.95;0.20;;;16.60;99.90;;;;;;5054918;28;20092;-77
2023/07/19 05:19:00;;;;;;;2.70;0.50;;;16.70;99.90;;;;;;5076872;28;20029;-77
2023/07/19 05:21:26;;;;;;;1.05;0.30;;;16.80;99.90;;;;;;5076830;28;20530;-77
2023/07/19 05:23:52;;;;;;;1.17;0.25;;;16.80;99.90;;;;;;5058794;28;20020;-77
2023/07/19 05:26:18;;;;;;;2.90;0.70;;;16.90;99.90;;;;;;5058845;28;20087;-77
2023/07/19 05:28:43;;;;;;;1.30;0.30;;;17.00;99.90;;;;;;5076595;28;20484;-77
2023/07/19 05:31:09;;;;;;;0.70;0.47;;;17.00;99.90;;;;;;5058645;28;20072;-77
2023/07/19 05:33:35;;;;;;;4.45;1.08;;;17.10;99.90;;;;;;5076878;28;20096;-77
2023/07/19 05:36:01;;;;;;;1.33;0.40;;;18.10;99.90;;;;;;5076995;28;20025;-77
2023/07/19 05:38:27;;;;;;;3.08;0.43;;;17.10;99.90;;;;;;5058440;28;20029;-77
2023/07/19 05:41:02;;;;;;;1.80;0.82;;;17.20;99.90;;;;;;5076775;28;20074;-77
2023/07/19 05:43:28;;;;;;;2.55;1.35;;;17.40;99.90;;;;;;5076751;28;20503;-77
2023/07/19 05:46:01;;;;;;;5.00;1.23;;;17.60;99.90;;;;;;5058709;28;20442;-78
2023/07/19 05:48:26;;;;;;;5.20;1.05;;;17.50;99.90;;;;;;5058836;28;20395;-76
2023/07/19 05:50:52;;;;;;;3.38;0.85;;;17.70;99.90;;;;;;5058838;28;20016;-79
2023/07/19 05:53:17;;;;;;;4.88;0.70;;;17.70;99.90;;;;;;5077176;28;20016;-77
2023/07/19 05:55:43;;;;;;;4.85;1.20;;;17.70;99.90;;;;;;5058642;28;20023;-77
2023/07/19 05:58:09;;;;;;;2.42;1.25;;;17.80;99.90;;;;;;5077486;28;20020;-76
2023/07/19 06:00:34;;;;;;;4.65;1.23;;;17.90;99.90;;;;;;5076974;28;20020;-78
2023/07/19 06:03:00;;;;;;;3.67;0.77;;;18.00;99.90;;;;;;5058996;28;20531;-77
2023/07/19 06:05:26;;;;;;;2.50;0.77;;;18.20;99.90;;;;;;5059217;28;20029;-76
2023/07/19 06:07:55;;;;;;;3.78;1.38;;;18.70;99.90;;;;;;5058726;28;20021;-77
2023/07/19 06:10:20;;;;;;;8.02;0.90;;;18.20;99.90;;;;;;5078004;28;20028;-78
2023/07/19 06:12:46;;;;;;;5.00;1.05;;;18.40;99.90;;;;;;5076484;28;20013;-78
2023/07/19 06:15:12;;;;;;;8.05;0.95;;;18.50;99.90;;;;;;5077316;28;20027;-78
2023/07/19 06:17:37;;;;;;;4.20;1.00;;;18.60;99.90;;;;;;5059470;28;20111;-76
2023/07/19 06:20:04;;;;;;;3.35;1.00;;;18.60;99.90;;;;;;5059007;28;20024;-78
2023/07/19 06:22:30;;;;;;;4.47;1.10;;;18.60;99.90;;;;;;5077842;28;20085;-77
2023/07/19 06:25:00;;;;;;;2.80;0.52;;;18.70;99.90;;;;;;5058400;28;20028;-78
2023/07/19 06:27:25;;;;;;;;;;;18.60;99.90;;;;;;5076855;28;20040;-76
2023/07/19 06:29:51;;;;;;;4.07;0.40;;;18.80;99.90;;;;;;5076031;28;19908;-77
2023/07/19 06:32:17;;;;;;;3.25;0.20;;;18.80;99.90;;;;;;5076035;28;20024;-77
2023/07/19 06:34:43;;;;;;;7.07;0.52;;;18.90;99.90;;;;;;5076502;28;20025;-76
2023/07/19 06:37:09;;;;;;;2.78;0.70;;;19.00;99.90;;;;;;5076475;28;20032;-78
2023/07/19 06:39:34;;;;;;;1.42;0.35;;;19.50;99.90;;;;;;5076312;28;20033;-77
2023/07/19 06:42:00;;;;;;;2.45;0.55;;;19.40;99.90;;;;;;5075987;28;20128;-77
2023/07/19 06:44:26;;;;;;;5.18;0.95;;;19.40;99.90;;;;;;5076264;28;20106;-78
2023/07/19 06:46:52;;;;;;;4.82;0.50;;;19.60;99.90;;;;;;5077176;28;20491;-78
2023/07/19 06:49:18;;;;;;;1.67;0.35;;;19.60;99.90;;;;;;5076038;28;20021;-78
2023/07/19 06:51:44;;;;;;;4.20;0.70;;;19.70;99.90;;;;;;5058038;28;20506;-78
2023/07/19 06:54:10;;;;;;;3.65;0.90;;;19.80;99.90;;;;;;5057805;28;20107;-78
2023/07/19 06:56:35;;;;;;;6.32;1.30;;;19.70;99.90;;;;;;5076116;28;20021;-76
2023/07/19 06:59:01;;;;;;;3.30;1.08;;;20.30;99.90;;;;;;5058145;28;20063;-78
2023/07/19 07:01:26;;;;;;;5.07;0.50;;;19.70;99.90;;;;;;5075941;28;20025;-78
2023/07/19 07:03:52;;;;;;;5.20;0.40;;;19.90;99.90;;;;;;5075403;28;20047;-77
2023/07/19 07:06:18;;;;;;;7.43;1.33;;;20.00;99.90;;;;;;5075389;28;20115;-77
2023/07/19 07:08:44;;;;;;;0.98;0.30;;;20.10;99.90;;;;;;5057453;28;20178;-77
2023/07/19 07:11:09;;;;;;;4.78;0.10;;;20.20;99.90;;;;;;5057923;28;20032;-77
2023/07/19 07:13:35;;;;;;;2.83;0.63;;;20.30;99.90;;;;;;5075050;28;20052;-78
2023/07/19 07:16:01;;;;;;;5.05;0.77;;;20.20;99.90;;;;;;5075043;28;20021;-77
2023/07/19 07:18:27;;;;;;;4.88;0.57;;;20.20;99.90;;;;;;5057185;28;20050;-78
2023/07/19 07:20:53;;;;;;;4.22;0.50;;;20.20;99.90;;;;;;5075119;28;20480;-76
2023/07/19 07:23:18;;;;;;;1.90;0.25;;;20.20;99.90;;;;;;5074641;28;20075;-77
2023/07/19 07:25:44;;;;;;;2.90;0.20;;;20.10;99.90;;;;;;5075154;28;20066;-78
2023/07/19 07:28:10;;;;;;;2.92;0.43;;;20.00;99.90;;;;;;5074884;28;20025;-78
2023/07/19 07:30:36;;;;;;;1.92;0.45;;;20.10;99.90;;;;;;5057361;28;20024;-77
2023/07/19 07:33:03;;;;;;;1.40;0.38;;;20.10;99.90;;;;;;5074656;28;20023;-78
2023/07/19 07:35:29;;;;;;;2.00;0.75;;;20.20;99.90;;;;;;5056758;28;20024;-76
2023/07/19 07:37:54;;;;;;;4.88;0.28;;;20.30;99.90;;;;;;5056690;28;20017;-78
2023/07/19 07:40:21;;;;;;;1.48;0.30;;;20.30;99.90;;;;;;5056425;28;20054;-78
2023/07/19 07:42:46;;;;;;;2.90;0.30;;;20.40;99.90;;;;;;5074566;28;20492;-76
2023/07/19 07:45:12;;;;;;;4.30;0.35;;;20.60;99.90;;;;;;5056363;28;20027;-77
2023/07/19 07:47:38;;;;;;;1.92;0.20;;;20.80;99.90;;;;;;5074574;28;20028;-77
2023/07/19 07:50:04;;;;;;;3.67;0.50;;;21.00;99.90;;;;;;5074419;28;20025;-78
2023/07/19 07:52:30;;;;;;;2.50;0.40;;;21.00;99.90;;;;;;5074298;28;20028;-77
2023/07/19 07:54:56;;;;;;;5.03;0.52;;;21.00;99.90;;;;;;5074236;28;20458;-78
2023/07/19 07:57:21;;;;;;;1.17;0.22;;;21.20;99.90;;;;;;5074633;28;20016;-78
2023/07/19 07:59:47;;;;;;;4.68;0.13;;;21.50;99.90;;;;;;5074933;28;20027;-77
2023/07/19 08:02:13;;;;;;;6.35;0.38;;;21.50;99.90;;;;;;5075104;28;20091;-77
2023/07/19 08:04:38;;;;;;;5.35;0.90;;;21.60;99.90;;;;;;5056269;28;20025;-78
2023/07/19 08:07:04;;;;;;;5.00;0.43;;;21.70;99.90;;;;;;5056506;28;20083;-78
2023/07/19 08:09:29;;;;;;;3.03;0.17;;;21.70;99.90;;;;;;5074219;28;20033;-76
2023/07/19 08:11:56;;;;;;;2.88;0.15;;;21.60;99.90;;;;;;5074370;28;20016;-76
2023/07/19 08:14:22;;;;;;;2.13;0.50;;;21.60;99.90;;;;;;5074012;28;20021;-76
2023/07/19 08:16:50;;;;;;;2.00;0.20;;;21.70;99.90;;;;;;5074962;28;20020;-77
2023/07/19 08:19:16;;;;;;;2.70;0.43;;;21.80;99.90;;;;;;5074238;28;20086;-77
2023/07/19 08:21:41;;;;;;;3.92;0.35;;;22.00;99.90;;;;;;5074577;28;20029;-78
2023/07/19 08:24:07;;;;;;;3.08;0.50;;;22.10;99.90;;;;;;5056118;28;20029;-77
2023/07/19 08:26:32;;;;;;;1.40;0.30;;;22.30;99.90;;;;;;5073781;28;20033;-78
2023/07/19 08:28:58;;;;;;;1.20;0.10;;;22.30;99.90;;;;;;5073947;28;20020;-77
2023/07/19 08:31:23;;;;;;;0.80;0.28;;;22.10;99.90;;;;;;5073765;28;20035;-76
2023/07/19 08:33:50;;;;;;;3.08;0.10;;;22.00;99.90;;;;;;5073960;28;20020;-77
2023/07/19 08:36:15;;;;;;;2.97;0.10;;;21.80;99.90;;;;;;5074095;28;20472;-78
2023/07/19 08:38:41;;;;;;;3.70;0.57;;;21.70;99.90;;;;;;5074721;28;20096;-78
2023/07/19 08:41:07;;;;;;;2.95;0.15;;;21.50;99.90;;;;;;5073760;28;20103;-77
2023/07/19 08:43:37;;;;;;;1.38;0.20;;;21.40;99.90;;;;;;5073895;28;20024;-78
2023/07/19 08:46:03;;;;;;;4.40;0.20;;;21.20;99.90;;;;;;5056845;28;20013;-77
2023/07/19 08:48:31;;;;;;;4.57;0.43;;;21.10;99.90;;;;;;5073876;28;20039;-78
2023/07/19 08:50:59;;;;;;;3.45;0.05;;;21.00;99.90;;;;;;5056196;28;20020;-77
2023/07/19 08:53:26;;;;;;;4.30;0.20;;;21.10;99.90;;;;;;5062734;28;20013;-78
2023/07/19 08:55:52;;;;;;;2.25;0.47;;;21.20;99.90;;;;;;5063585;28;20020;-78
2023/07/19 08:58:19;;;;;;;4.45;0.32;;;21.60;99.90;;;;;;5062291;28;20016;-75
2023/07/19 09:00:46;;;;;;;1.70;0.52;;;22.00;99.90;;;;;;5079834;28;20107;-75
2023/07/19 09:03:12;;;;;;;2.17;0.40;;;22.20;99.90;;;;;;5061882;28;20032;-76
2023/07/19 09:05:38;;;;;;;6.22;0.45;;;22.20;99.90;;;;;;5079915;28;20048;-76
2023/07/19 09:08:04;;;;;;;1.25;0.08;;;22.10;99.90;;;;;;5080117;28;20020;-80
2023/07/19 09:10:30;;;;;;;2.42;0.15;;;22.00;99.90;;;;;;5063872;28;20024;-78
2023/07/19 09:12:57;;;;;;;2.38;0.10;;;21.90;99.90;;;;;;5064917;28;20027;-78
2023/07/19 09:15:22;;;;;;;2.85;0.20;;;21.90;99.90;;;;;;5081081;28;20544;-79
2023/07/19 09:17:49;;;;;;;2.67;0.10;;;22.00;99.90;;;;;;5081508;28;20052;-77
2023/07/19 09:20:16;;;;;;;1.00;0.20;;;22.10;99.90;;;;;;5081141;28;20036;-76
2023/07/19 09:22:42;;;;;;;2.90;0.17;;;22.40;99.90;;;;;;5080275;28;20103;-76
2023/07/19 09:25:10;;;;;;;3.80;0.10;;;22.70;99.90;;;;;;5061552;28;20120;-77
2023/07/19 09:27:37;;;;;;;3.92;0.35;;;23.00;99.90;;;;;;5062354;28;20111;-76
2023/07/19 09:30:08;;;;;;;4.72;0.38;;;23.40;99.90;;;;;;5061851;28;20028;-74
2023/07/19 09:32:34;;;;;;;3.35;0.32;;;23.60;99.90;;;;;;5079566;28;20553;-76
2023/07/19 09:35:03;;;;;;;1.20;0.13;;;23.60;99.90;;;;;;5062681;28;20020;-78
2023/07/19 09:37:29;;;;;;;2.85;0.10;;;23.30;99.90;;;;;;5081980;28;20017;-78
2023/07/19 09:39:56;;;;;;;4.40;0.20;;;23.00;99.90;;;;;;5063149;28;20472;-78
2023/07/19 09:42:24;;;;;;;2.90;0.10;;;22.60;99.90;;;;;;5061711;28;20021;-77
2023/07/19 09:44:50;;;;;;;2.95;0.35;;;22.20;99.90;;;;;;5080011;28;20040;-78
2023/07/19 09:47:17;;;;;;;4.15;0.10;;;22.00;99.90;;;;;;5080636;28;20017;-77
2023/07/19 09:49:43;;;;;;;2.17;0.20;;;21.90;99.90;;;;;;5081599;28;20027;-78
2023/07/19 09:52:16;;;;;;;3.08;0.40;;;21.90;99.90;;;;;;5064944;28;20071;-78
2023/07/19 09:54:43;;;;;;;2.05;0.10;;;21.80;99.90;;;;;;5064771;28;20020;-78
2023/07/19 09:57:09;;;;;;;1.75;0.00;;;21.90;99.90;;;;;;5064520;28;20020;-79
2023/07/19 09:59:44;;;;;;;0.75;0.10;;;21.90;99.90;;;;;;5064262;28;20086;-81
2023/07/19 10:02:11;;;;;;;9.45;0.95;;;22.10;99.90;;;;;;5080914;28;20059;-77
2023/07/19 10:04:39;;;;;;;2.90;0.30;;;22.30;99.90;;;;;;5059118;28;20507;-76
2023/07/19 10:07:08;;;;;;;3.13;0.52;;;22.40;99.90;;;;;;5059584;28;20082;-77
2023/07/19 10:09:39;;;;;;;6.40;0.20;;;22.30;99.90;;;;;;5077270;28;20033;-79
2023/07/19 10:12:22;;;;;;;3.05;0.40;;;22.40;99.90;;;;;;5077800;28;20016;-77
2023/07/19 10:14:58;;;;;;;1.58;0.22;;;22.30;99.90;;;;;;5060088;28;20028;-78
2023/07/19 10:17:24;;;;;;;3.33;0.10;;;22.30;99.90;;;;;;5077740;28;20020;-73
2023/07/19 10:20:06;;;;;;;3.40;0.15;;;22.10;99.90;;;;;;5075703;28;20028;-73
2023/07/19 10:22:55;;;;;;;1.67;0.40;;;22.00;99.90;;;;;;5075697;28;20043;-77
2023/07/19 10:25:48;;;;;;;3.58;0.17;;;22.10;99.90;;;;;;5057704;28;20376;-77
2023/07/19 10:28:24;;;;;;;1.17;0.00;;;22.10;99.90;;;;;;5063053;28;20102;-76
2023/07/19 10:30:53;;;;;;;1.60;0.20;;;22.30;99.90;;;;;;5075772;28;20024;-77
2023/07/19 10:33:22;;;;;;;2.85;0.13;;;22.40;99.90;;;;;;5075555;28;20024;-77
2023/07/19 10:35:50;;;;;;;2.63;0.10;;;22.40;99.90;;;;;;5057535;28;20115;-76
2023/07/19 10:38:18;;;;;;;3.00;0.00;;;22.60;99.90;;;;;;5075559;28;20027;-76
2023/07/19 10:40:46;;;;;;;3.40;0.13;;;22.60;99.90;;;;;;5057615;28;20028;-74
2023/07/19 10:43:12;;;;;;;;;;;22.50;99.90;;;;;;5058201;28;20031;-76
2023/07/19 10:45:38;;;;;;;2.67;0.77;;;22.40;99.90;;;;;;5075497;28;19904;-77
2023/07/19 10:48:04;;;;;;;4.13;0.57;;;22.40;99.90;;;;;;5057586;28;20550;-76
2023/07/19 10:50:30;;;;;;;1.27;0.05;;;22.50;99.90;;;;;;5075641;28;20035;-77
2023/07/19 10:52:55;;;;;;;3.47;0.25;;;22.60;99.90;;;;;;5075529;28;20389;-77
2023/07/19 10:55:21;;;;;;;5.97;0.30;;;22.80;99.90;;;;;;5076077;28;20480;-78
2023/07/19 10:57:47;;;;;;;2.25;0.15;;;23.00;99.90;;;;;;5076424;28;20074;-78
2023/07/19 11:00:14;;;;;;;1.65;0.30;;;23.50;99.90;;;;;;5058344;28;20531;-78
2023/07/19 11:02:40;;;;;;;2.28;0.00;;;24.10;99.90;;;;;;5058199;28;20209;-76
2023/07/19 11:05:07;;;;;;;2.60;0.05;;;24.50;99.90;;;;;;5075238;28;20036;-74
2023/07/19 11:07:33;;;;;;;0.80;0.00;;;24.70;99.90;;;;;;5075417;28;20024;-74
2023/07/19 11:09:59;;;;;;;1.05;0.10;;;25.00;99.90;;;;;;5074978;28;20028;-73
2023/07/19 11:12:25;;;;;;;1.40;0.00;;;25.00;99.90;;;;;;5074805;28;20502;-75
2023/07/19 11:15:00;;;;;;;2.75;0.00;;;25.10;99.90;;;;;;5055637;28;20013;-76
2023/07/19 11:17:27;;;;;;;1.95;0.20;;;25.30;99.90;;;;;;5074907;28;20437;-77
2023/07/19 11:19:53;;;;;;;0.63;0.00;;;25.30;99.90;;;;;;5057077;28;20035;-76
2023/07/19 11:22:23;;;;;;;1.75;0.00;;;25.10;99.90;;;;;;5057002;28;20387;-75
2023/07/19 11:24:51;;;;;;;3.30;0.10;;;25.20;99.90;;;;;;5056813;28;20044;-77
2023/07/19 11:27:17;;;;;;;1.67;0.00;;;25.50;99.90;;;;;;5056790;28;20032;-77
2023/07/19 11:29:47;;;;;;;2.13;0.40;;;25.60;99.90;;;;;;5074538;28;20048;-77
2023/07/19 11:32:13;;;;;;;0.45;0.00;;;25.50;99.90;;;;;;5074587;28;20024;-77
2023/07/19 11:34:56;;;;;;;4.10;0.00;;;25.70;99.90;;;;;;5056373;28;20024;-77
2023/07/19 11:37:26;;;;;;;2.03;0.20;;;25.80;99.90;;;;;;5074708;28;20028;-76
2023/07/19 11:39:57;;;;;;;2.80;0.10;;;26.20;99.90;;;;;;5075049;28;20074;-75
2023/07/19 11:42:46;;;;;;;4.32;0.43;;;26.30;99.30;;;;;;5074461;28;20051;-76
2023/07/19 11:45:16;;;;;;;0.25;0.00;;;25.90;99.00;;;;;;5074129;28;20045;-76
2023/07/19 11:47:43;;;;;;;1.33;0.03;;;26.00;99.90;;;;;;5074483;28;20052;-77
2023/07/19 11:50:10;;;;;;;2.20;0.10;;;26.10;99.90;;;;;;5074295;28;20021;-76
2023/07/19 11:52:46;;;;;;;2.50;0.63;;;26.20;99.90;;;;;;5056230;28;20024;-76
2023/07/19 11:55:13;;;;;;;0.88;0.10;;;26.00;99.90;;;;;;5056189;28;20115;-76
2023/07/19 11:57:39;;;;;;;2.53;0.10;;;25.60;99.80;;;;;;5074064;28;20384;-76
2023/07/19 12:00:07;;;;;;;1.85;0.10;;;25.40;99.90;;;;;;5056016;28;20074;-77
2023/07/19 12:02:33;;;;;;;2.53;0.00;;;25.50;99.90;;;;;;5056312;28;20052;-76
2023/07/19 12:04:59;;;;;;;0.88;0.00;;;26.00;99.90;;;;;;5073780;28;20267;-75
2023/07/19 12:07:24;;;;;;;1.85;0.00;;;26.50;99.10;;;;;;5055945;28;20492;-74
2023/07/19 12:09:50;;;;;;;2.92;0.00;;;26.70;98.20;;;;;;5073686;28;20427;-73
2023/07/19 12:12:15;;;;;;;2.08;0.10;;;26.60;98.40;;;;;;5055847;28;20431;-74
2023/07/19 12:14:41;;;;;;;1.00;0.30;;;26.50;98.90;;;;;;5073360;28;20480;-74
2023/07/19 12:17:06;;;;;;;2.90;0.52;;;26.40;99.00;;;;;;5055753;28;20404;-76
2023/07/19 12:19:33;;;;;;;1.13;0.00;;;26.20;98.70;;;;;;5073740;28;20493;-76
2023/07/19 12:22:00;;;;;;;0.45;0.00;;;25.90;98.20;;;;;;5055490;28;20029;-76
2023/07/19 12:24:26;;;;;;;0.35;0.00;;;25.90;97.60;;;;;;5073393;28;20511;-76
2023/07/19 12:26:51;;;;;;;0.10;0.00;;;25.70;98.80;;;;;;5073094;28;20029;-75
2023/07/19 12:29:17;;;;;;;0.63;0.10;;;25.30;98.90;;;;;;5055447;28;20025;-74
2023/07/19 12:31:43;;;;;;;1.42;0.00;;;25.00;98.50;;;;;;5073439;28;20133;-74
2023/07/19 12:34:09;;;;;;;3.03;0.00;;;24.70;99.90;;;;;;5073651;28;20020;-75
2023/07/19 12:36:34;;;;;;;2.10;0.00;;;24.50;99.90;;;;;;5073526;28;20095;-73
2023/07/19 12:39:00;;;;;;;2.25;0.00;;;24.30;99.90;;;;;;5073305;28;20422;-73
2023/07/19 12:41:25;;;;;;;0.00;0.00;;;24.30;99.90;;;;;;5073340;28;20481;-73
2023/07/19 12:43:51;;;;;;;0.10;0.00;;;24.30;99.90;;;;;;5073182;28;20503;-72
2023/07/19 12:46:19;;;;;;;0.52;0.00;;;24.40;99.90;;;;;;5073279;28;20066;-73